sensor_id;sensor_type;location;lat;lon;timestamp;pressure;altitude;pressure_sealevel;temperature;humidity
67029;BME280;53934;52.142;11.738;2022-08-01T00:01:52;100818.44;;;22.55;67.09
67029;BME280;53934;52.142;11.738;2022-08-01T00:04:19;100825.28;;;22.31;68.29
67029;BME280;53934;52.142;11.738;2022-08-01T00:06:45;100818.91;;;22.32;68.63
67029;BME280;53934;52.142;11.738;2022-08-01T00:09:12;100815.25;;;22.33;67.68
67029;BME280;53934;52.142;11.738;2022-08-01T00:11:38;100825.03;;;22.43;66.24
67029;BME280;53934;52.142;11.738;2022-08-01T00:14:04;100814.94;;;22.37;67.14
67029;BME280;53934;52.142;11.738;2022-08-01T00:16:32;100811.81;;;22.06;67.47
67029;BME280;53934;52.142;11.738;2022-08-01T00:18:58;100813.72;;;22.49;66.75
67029;BME280;53934;52.142;11.738;2022-08-01T00:21:25;100806.09;;;22.54;65.97
67029;BME280;53934;52.142;11.738;2022-08-01T00:23:51;100812.56;;;22.51;66.03
67029;BME280;53934;52.142;11.738;2022-08-01T00:26:17;100804.94;;;22.56;66.45
67029;BME280;53934;52.142;11.738;2022-08-01T00:28:44;100798.22;;;22.52;66.41
67029;BME280;53934;52.142;11.738;2022-08-01T00:31:10;100797.06;;;22.55;66.20
67029;BME280;53934;52.142;11.738;2022-08-01T00:33:38;100801.50;;;22.64;66.04
67029;BME280;53934;52.142;11.738;2022-08-01T00:36:04;100801.13;;;22.41;67.08
67029;BME280;53934;52.142;11.738;2022-08-01T00:38:30;100794.63;;;22.44;67.33
67029;BME280;53934;52.142;11.738;2022-08-01T00:40:57;100794.88;;;22.50;67.35
67029;BME280;53934;52.142;11.738;2022-08-01T00:43:23;100792.72;;;22.36;67.57
67029;BME280;53934;52.142;11.738;2022-08-01T00:45:50;100787.84;;;22.49;67.51
67029;BME280;53934;52.142;11.738;2022-08-01T00:48:16;100788.09;;;22.38;68.09
67029;BME280;53934;52.142;11.738;2022-08-01T00:50:44;100786.09;;;22.58;67.07
67029;BME280;53934;52.142;11.738;2022-08-01T00:53:10;100776.94;;;22.43;68.01
67029;BME280;53934;52.142;11.738;2022-08-01T00:55:36;100784.34;;;22.49;67.80
67029;BME280;53934;52.142;11.738;2022-08-01T00:58:03;100777.38;;;22.56;67.47
67029;BME280;53934;52.142;11.738;2022-08-01T01:00:30;100783.72;;;22.72;67.25
67029;BME280;53934;52.142;11.738;2022-08-01T01:02:57;100784.19;;;22.50;67.99
67029;BME280;53934;52.142;11.738;2022-08-01T01:05:23;100776.31;;;22.49;68.59
67029;BME280;53934;52.142;11.738;2022-08-01T01:07:56;100773.00;;;22.55;68.15
67029;BME280;53934;52.142;11.738;2022-08-01T01:10:30;100775.25;;;22.42;69.60
67029;BME280;53934;52.142;11.738;2022-08-01T01:13:01;100766.03;;;22.62;68.87
67029;BME280;53934;52.142;11.738;2022-08-01T01:15:33;100777.03;;;21.98;71.44
67029;BME280;53934;52.142;11.738;2022-08-01T01:18:03;100773.72;;;22.21;70.87
67029;BME280;53934;52.142;11.738;2022-08-01T01:20:37;100773.91;;;22.20;70.90
67029;BME280;53934;52.142;11.738;2022-08-01T01:23:20;100767.31;;;22.32;70.94
67029;BME280;53934;52.142;11.738;2022-08-01T01:25:59;100773.56;;;22.41;70.48
67029;BME280;53934;52.142;11.738;2022-08-01T01:28:33;100772.13;;;22.46;70.77
67029;BME280;53934;52.142;11.738;2022-08-01T01:31:03;100778.78;;;22.24;71.46
67029;BME280;53934;52.142;11.738;2022-08-01T01:33:33;100768.25;;;22.23;71.32
67029;BME280;53934;52.142;11.738;2022-08-01T01:36:03;100768.38;;;22.21;71.63
67029;BME280;53934;52.142;11.738;2022-08-01T01:41:01;100773.13;;;22.27;71.80
67029;BME280;53934;52.142;11.738;2022-08-01T01:43:29;100764.00;;;22.56;70.79
67029;BME280;53934;52.142;11.738;2022-08-01T01:45:56;100763.69;;;22.59;70.64
67029;BME280;53934;52.142;11.738;2022-08-01T01:48:24;100760.97;;;22.68;70.08
67029;BME280;53934;52.142;11.738;2022-08-01T01:50:53;100765.47;;;22.32;71.86
67029;BME280;53934;52.142;11.738;2022-08-01T01:53:22;100763.03;;;22.21;72.19
67029;BME280;53934;52.142;11.738;2022-08-01T01:55:52;100764.63;;;22.50;71.59
67029;BME280;53934;52.142;11.738;2022-08-01T01:58:20;100767.38;;;22.40;71.75
67029;BME280;53934;52.142;11.738;2022-08-01T02:00:49;100764.00;;;22.56;71.56
67029;BME280;53934;52.142;11.738;2022-08-01T02:03:17;100770.19;;;22.56;70.86
67029;BME280;53934;52.142;11.738;2022-08-01T02:05:46;100767.03;;;22.78;70.34
67029;BME280;53934;52.142;11.738;2022-08-01T02:08:15;100765.53;;;23.02;69.88
67029;BME280;53934;52.142;11.738;2022-08-01T02:10:42;100767.44;;;22.92;69.65
67029;BME280;53934;52.142;11.738;2022-08-01T02:13:31;100773.56;;;23.02;69.24
67029;BME280;53934;52.142;11.738;2022-08-01T02:15:59;100778.00;;;22.50;71.72
67029;BME280;53934;52.142;11.738;2022-08-01T02:18:27;100778.44;;;22.63;71.38
67029;BME280;53934;52.142;11.738;2022-08-01T02:20:55;100769.88;;;22.77;70.61
67029;BME280;53934;52.142;11.738;2022-08-01T02:23:24;100773.66;;;22.49;71.92
67029;BME280;53934;52.142;11.738;2022-08-01T02:25:53;100771.28;;;22.46;72.17
67029;BME280;53934;52.142;11.738;2022-08-01T02:28:25;100770.34;;;22.55;71.88
67029;BME280;53934;52.142;11.738;2022-08-01T02:30:54;100760.97;;;22.68;71.57
67029;BME280;53934;52.142;11.738;2022-08-01T02:33:25;100764.38;;;22.78;71.13
67029;BME280;53934;52.142;11.738;2022-08-01T02:35:59;100771.34;;;22.71;71.39
67029;BME280;53934;52.142;11.738;2022-08-01T02:38:28;100774.69;;;22.56;72.00
67029;BME280;53934;52.142;11.738;2022-08-01T02:41:01;100779.13;;;22.47;72.42
67029;BME280;53934;52.142;11.738;2022-08-01T02:43:31;100781.91;;;22.20;73.58
67029;BME280;53934;52.142;11.738;2022-08-01T02:46:01;100775.72;;;22.37;72.99
67029;BME280;53934;52.142;11.738;2022-08-01T02:48:30;100773.38;;;22.16;73.66
67029;BME280;53934;52.142;11.738;2022-08-01T02:51:00;100772.44;;;22.08;74.48
67029;BME280;53934;52.142;11.738;2022-08-01T02:53:31;100769.69;;;22.00;74.74
67029;BME280;53934;52.142;11.738;2022-08-01T02:56:03;100775.47;;;21.95;75.04
67029;BME280;53934;52.142;11.738;2022-08-01T02:58:32;100773.13;;;22.10;74.45
67029;BME280;53934;52.142;11.738;2022-08-01T03:01:00;100776.09;;;22.42;73.08
67029;BME280;53934;52.142;11.738;2022-08-01T03:03:28;100765.09;;;22.45;72.58
67029;BME280;53934;52.142;11.738;2022-08-01T03:05:56;100782.59;;;22.65;72.01
67029;BME280;53934;52.142;11.738;2022-08-01T03:08:25;100778.13;;;22.84;71.25
67029;BME280;53934;52.142;11.738;2022-08-01T03:10:52;100782.34;;;22.51;72.22
67029;BME280;53934;52.142;11.738;2022-08-01T03:13:20;100780.16;;;22.90;71.04
67029;BME280;53934;52.142;11.738;2022-08-01T03:15:48;100778.28;;;22.64;72.16
67029;BME280;53934;52.142;11.738;2022-08-01T03:18:15;100783.56;;;22.56;72.24
67029;BME280;53934;52.142;11.738;2022-08-01T03:20:44;100783.03;;;22.70;71.87
67029;BME280;53934;52.142;11.738;2022-08-01T03:23:12;100800.13;;;22.60;72.63
67029;BME280;53934;52.142;11.738;2022-08-01T03:25:42;100790.97;;;22.45;72.72
67029;BME280;53934;52.142;11.738;2022-08-01T03:28:13;100805.72;;;22.31;73.75
67029;BME280;53934;52.142;11.738;2022-08-01T03:30:40;100799.38;;;22.32;73.97
67029;BME280;53934;52.142;11.738;2022-08-01T03:33:08;100800.25;;;22.58;73.04
67029;BME280;53934;52.142;11.738;2022-08-01T03:35:39;100804.31;;;22.62;72.82
67029;BME280;53934;52.142;11.738;2022-08-01T03:38:09;100803.47;;;22.62;72.81
67029;BME280;53934;52.142;11.738;2022-08-01T03:40:39;100804.41;;;22.53;73.25
67029;BME280;53934;52.142;11.738;2022-08-01T03:43:15;100811.72;;;22.51;73.56
67029;BME280;53934;52.142;11.738;2022-08-01T03:45:48;100810.81;;;22.60;73.13
67029;BME280;53934;52.142;11.738;2022-08-01T03:48:18;100807.81;;;22.80;72.36
67029;BME280;53934;52.142;11.738;2022-08-01T03:50:46;100805.31;;;22.79;71.98
67029;BME280;53934;52.142;11.738;2022-08-01T03:53:14;100811.66;;;22.60;72.80
67029;BME280;53934;52.142;11.738;2022-08-01T03:55:43;100811.97;;;22.22;75.21
67029;BME280;53934;52.142;11.738;2022-08-01T03:58:11;100807.88;;;22.27;76.29
67029;BME280;53934;52.142;11.738;2022-08-01T04:00:39;100806.16;;;22.44;76.67
67029;BME280;53934;52.142;11.738;2022-08-01T04:03:09;100809.44;;;22.56;76.77
67029;BME280;53934;52.142;11.738;2022-08-01T04:05:36;100806.38;;;22.51;77.14
67029;BME280;53934;52.142;11.738;2022-08-01T04:08:03;100812.28;;;22.37;78.29
67029;BME280;53934;52.142;11.738;2022-08-01T04:10:29;100807.69;;;22.29;79.16
67029;BME280;53934;52.142;11.738;2022-08-01T04:12:55;100804.19;;;22.28;79.07
67029;BME280;53934;52.142;11.738;2022-08-01T04:15:23;100806.50;;;22.23;79.62
67029;BME280;53934;52.142;11.738;2022-08-01T04:17:50;100814.72;;;22.30;79.49
67029;BME280;53934;52.142;11.738;2022-08-01T04:20:16;100812.44;;;22.53;78.26
67029;BME280;53934;52.142;11.738;2022-08-01T04:22:42;100806.78;;;22.38;79.05
67029;BME280;53934;52.142;11.738;2022-08-01T04:25:12;100818.78;;;22.34;79.54
67029;BME280;53934;52.142;11.738;2022-08-01T04:27:42;100813.50;;;22.60;78.31
67029;BME280;53934;52.142;11.738;2022-08-01T04:30:12;100819.06;;;22.49;79.08
67029;BME280;53934;52.142;11.738;2022-08-01T04:32:42;100815.47;;;22.40;79.42
67029;BME280;53934;52.142;11.738;2022-08-01T04:35:12;100812.50;;;22.25;80.09
67029;BME280;53934;52.142;11.738;2022-08-01T04:37:43;100812.19;;;22.28;79.94
67029;BME280;53934;52.142;11.738;2022-08-01T04:40:11;100808.59;;;22.55;78.98
67029;BME280;53934;52.142;11.738;2022-08-01T04:42:38;100806.69;;;22.48;78.88
67029;BME280;53934;52.142;11.738;2022-08-01T04:45:06;100809.44;;;22.56;79.49
67029;BME280;53934;52.142;11.738;2022-08-01T04:47:34;100816.31;;;22.76;78.29
67029;BME280;53934;52.142;11.738;2022-08-01T04:50:05;100823.78;;;22.90;77.88
67029;BME280;53934;52.142;11.738;2022-08-01T04:52:33;100814.84;;;23.07;77.28
67029;BME280;53934;52.142;11.738;2022-08-01T04:55:00;100817.44;;;23.17;76.74
67029;BME280;53934;52.142;11.738;2022-08-01T04:57:27;100820.97;;;23.25;75.90
67029;BME280;53934;52.142;11.738;2022-08-01T04:59:53;100820.72;;;23.37;75.28
67029;BME280;53934;52.142;11.738;2022-08-01T05:02:22;100821.97;;;23.50;74.56
67029;BME280;53934;52.142;11.738;2022-08-01T05:04:49;100817.38;;;23.35;74.65
67029;BME280;53934;52.142;11.738;2022-08-01T05:07:16;100824.31;;;23.19;74.81
67029;BME280;53934;52.142;11.738;2022-08-01T05:09:43;100831.44;;;23.11;76.50
67029;BME280;53934;52.142;11.738;2022-08-01T05:12:11;100826.97;;;23.19;75.75
67029;BME280;53934;52.142;11.738;2022-08-01T05:14:37;100843.09;;;23.02;75.87
67029;BME280;53934;52.142;11.738;2022-08-01T05:17:05;100834.16;;;22.93;75.71
67029;BME280;53934;52.142;11.738;2022-08-01T05:19:33;100838.66;;;22.93;76.20
67029;BME280;53934;52.142;11.738;2022-08-01T05:22:00;100829.91;;;22.83;76.58
67029;BME280;53934;52.142;11.738;2022-08-01T05:24:28;100828.56;;;23.04;76.06
67029;BME280;53934;52.142;11.738;2022-08-01T05:26:54;100843.94;;;22.67;76.69
67029;BME280;53934;52.142;11.738;2022-08-01T05:29:21;100841.38;;;22.75;76.45
67029;BME280;53934;52.142;11.738;2022-08-01T05:31:47;100834.03;;;22.77;76.96
67029;BME280;53934;52.142;11.738;2022-08-01T05:34:14;100850.22;;;22.58;77.49
67029;BME280;53934;52.142;11.738;2022-08-01T05:36:40;100839.59;;;22.48;78.11
67029;BME280;53934;52.142;11.738;2022-08-01T05:39:09;100841.66;;;22.37;79.36
67029;BME280;53934;52.142;11.738;2022-08-01T05:41:36;100850.75;;;22.44;79.14
67029;BME280;53934;52.142;11.738;2022-08-01T05:44:03;100851.28;;;22.29;80.20
67029;BME280;53934;52.142;11.738;2022-08-01T05:46:30;100852.75;;;22.24;80.63
67029;BME280;53934;52.142;11.738;2022-08-01T05:48:56;100851.25;;;21.84;82.62
67029;BME280;53934;52.142;11.738;2022-08-01T05:51:23;100857.09;;;21.70;83.89
67029;BME280;53934;52.142;11.738;2022-08-01T05:53:50;100853.06;;;21.84;83.82
67029;BME280;53934;52.142;11.738;2022-08-01T05:56:17;100857.34;;;22.04;82.54
67029;BME280;53934;52.142;11.738;2022-08-01T05:58:44;100853.88;;;21.67;84.78
67029;BME280;53934;52.142;11.738;2022-08-01T06:01:11;100857.63;;;21.74;84.27
67029;BME280;53934;52.142;11.738;2022-08-01T06:03:37;100855.88;;;21.92;83.59
67029;BME280;53934;52.142;11.738;2022-08-01T06:06:04;100857.34;;;22.04;82.91
67029;BME280;53934;52.142;11.738;2022-08-01T06:08:31;100861.28;;;22.27;82.95
67029;BME280;53934;52.142;11.738;2022-08-01T06:10:58;100862.13;;;22.28;82.39
67029;BME280;53934;52.142;11.738;2022-08-01T06:13:24;100859.50;;;21.64;83.46
67029;BME280;53934;52.142;11.738;2022-08-01T06:15:52;100868.34;;;22.01;83.16
67029;BME280;53934;52.142;11.738;2022-08-01T06:18:19;100872.91;;;21.91;83.15
67029;BME280;53934;52.142;11.738;2022-08-01T06:20:45;100879.78;;;22.11;82.31
67029;BME280;53934;52.142;11.738;2022-08-01T06:23:12;100878.28;;;22.09;81.80
67029;BME280;53934;52.142;11.738;2022-08-01T06:25:38;100886.00;;;21.75;83.55
67029;BME280;53934;52.142;11.738;2022-08-01T06:28:05;100898.44;;;21.84;83.02
67029;BME280;53934;52.142;11.738;2022-08-01T06:30:31;100890.09;;;21.69;83.41
67029;BME280;53934;52.142;11.738;2022-08-01T06:32:59;100893.38;;;22.18;81.01
67029;BME280;53934;52.142;11.738;2022-08-01T06:35:26;100892.72;;;22.16;80.53
67029;BME280;53934;52.142;11.738;2022-08-01T06:37:54;100894.41;;;22.17;82.75
67029;BME280;53934;52.142;11.738;2022-08-01T06:40:21;100898.47;;;23.09;81.97
67029;BME280;53934;52.142;11.738;2022-08-01T06:42:47;100894.09;;;23.52;76.86
67029;BME280;53934;52.142;11.738;2022-08-01T06:45:14;100900.84;;;23.12;75.11
67029;BME280;53934;52.142;11.738;2022-08-01T06:47:41;100911.00;;;23.09;75.41
67029;BME280;53934;52.142;11.738;2022-08-01T06:50:11;100912.19;;;23.14;74.42
67029;BME280;53934;52.142;11.738;2022-08-01T06:52:39;100905.59;;;23.01;75.11
67029;BME280;53934;52.142;11.738;2022-08-01T06:55:06;100911.16;;;23.07;74.49
67029;BME280;53934;52.142;11.738;2022-08-01T06:57:32;100909.84;;;23.11;74.68
67029;BME280;53934;52.142;11.738;2022-08-01T07:00:01;100910.84;;;23.36;73.89
67029;BME280;53934;52.142;11.738;2022-08-01T07:02:28;100903.09;;;23.51;72.64
67029;BME280;53934;52.142;11.738;2022-08-01T07:04:55;100913.56;;;23.18;73.18
67029;BME280;53934;52.142;11.738;2022-08-01T07:07:26;100915.81;;;23.49;73.37
67029;BME280;53934;52.142;11.738;2022-08-01T07:09:53;100906.16;;;23.56;73.55
67029;BME280;53934;52.142;11.738;2022-08-01T07:12:19;100922.50;;;24.12;71.02
67029;BME280;53934;52.142;11.738;2022-08-01T07:14:45;100910.81;;;23.88;70.56
67029;BME280;53934;52.142;11.738;2022-08-01T07:17:12;100919.22;;;23.93;70.53
67029;BME280;53934;52.142;11.738;2022-08-01T07:19:38;100928.91;;;23.86;71.32
67029;BME280;53934;52.142;11.738;2022-08-01T07:22:04;100923.66;;;23.50;70.30
67029;BME280;53934;52.142;11.738;2022-08-01T07:24:32;100923.06;;;23.56;71.20
67029;BME280;53934;52.142;11.738;2022-08-01T07:26:58;100926.78;;;23.63;70.98
67029;BME280;53934;52.142;11.738;2022-08-01T07:29:25;100920.47;;;23.72;71.59
67029;BME280;53934;52.142;11.738;2022-08-01T07:31:51;100923.47;;;23.69;71.67
67029;BME280;53934;52.142;11.738;2022-08-01T07:34:18;100920.63;;;23.71;71.49
67029;BME280;53934;52.142;11.738;2022-08-01T07:36:44;100926.88;;;24.13;70.26
67029;BME280;53934;52.142;11.738;2022-08-01T07:39:11;100924.59;;;24.27;69.14
67029;BME280;53934;52.142;11.738;2022-08-01T07:41:38;100926.28;;;24.44;70.88
67029;BME280;53934;52.142;11.738;2022-08-01T07:44:05;100931.41;;;25.03;67.63
67029;BME280;53934;52.142;11.738;2022-08-01T07:46:31;100925.19;;;25.51;66.30
67029;BME280;53934;52.142;11.738;2022-08-01T07:48:57;100931.53;;;25.50;65.98
67029;BME280;53934;52.142;11.738;2022-08-01T07:51:23;100935.44;;;25.15;64.57
67029;BME280;53934;52.142;11.738;2022-08-01T07:53:50;100931.41;;;24.95;65.41
67029;BME280;53934;52.142;11.738;2022-08-01T07:56:16;100939.28;;;25.21;63.44
67029;BME280;53934;52.142;11.738;2022-08-01T07:58:44;100947.63;;;24.69;65.18
67029;BME280;53934;52.142;11.738;2022-08-01T08:01:11;100949.59;;;24.09;67.45
67029;BME280;53934;52.142;11.738;2022-08-01T08:03:38;100957.25;;;23.96;69.06
67029;BME280;53934;52.142;11.738;2022-08-01T08:06:05;100954.97;;;23.50;72.32
67029;BME280;53934;52.142;11.738;2022-08-01T08:08:31;100952.31;;;23.58;72.35
67029;BME280;53934;52.142;11.738;2022-08-01T08:10:59;100959.50;;;23.32;72.90
67029;BME280;53934;52.142;11.738;2022-08-01T08:13:26;100956.19;;;23.38;74.88
67029;BME280;53934;52.142;11.738;2022-08-01T08:15:54;100952.13;;;23.51;75.00
67029;BME280;53934;52.142;11.738;2022-08-01T08:18:20;100947.22;;;23.64;74.61
67029;BME280;53934;52.142;11.738;2022-08-01T08:20:47;100947.50;;;24.21;74.29
67029;BME280;53934;52.142;11.738;2022-08-01T08:23:13;100943.25;;;24.68;71.95
67029;BME280;53934;52.142;11.738;2022-08-01T08:25:57;100950.78;;;24.65;68.62
67029;BME280;53934;52.142;11.738;2022-08-01T08:28:23;100952.63;;;24.56;67.97
67029;BME280;53934;52.142;11.738;2022-08-01T08:30:49;100947.56;;;24.37;66.82
67029;BME280;53934;52.142;11.738;2022-08-01T08:33:17;100952.75;;;23.71;68.16
67029;BME280;53934;52.142;11.738;2022-08-01T08:35:43;100955.59;;;23.44;68.89
67029;BME280;53934;52.142;11.738;2022-08-01T08:38:10;100962.78;;;23.25;69.59
67029;BME280;53934;52.142;11.738;2022-08-01T08:40:36;100965.47;;;23.08;71.17
67029;BME280;53934;52.142;11.738;2022-08-01T08:43:04;100970.66;;;23.27;70.49
67029;BME280;53934;52.142;11.738;2022-08-01T08:45:32;100970.72;;;23.53;69.51
67029;BME280;53934;52.142;11.738;2022-08-01T08:47:59;100977.16;;;23.42;70.20
67029;BME280;53934;52.142;11.738;2022-08-01T08:50:28;100981.91;;;23.31;70.00
67029;BME280;53934;52.142;11.738;2022-08-01T08:52:55;100985.25;;;23.33;69.42
67029;BME280;53934;52.142;11.738;2022-08-01T08:55:22;100993.13;;;22.99;70.20
67029;BME280;53934;52.142;11.738;2022-08-01T08:57:49;100991.53;;;22.70;70.70
67029;BME280;53934;52.142;11.738;2022-08-01T09:00:16;100985.81;;;22.83;68.98
67029;BME280;53934;52.142;11.738;2022-08-01T09:02:43;100996.75;;;23.07;67.48
67029;BME280;53934;52.142;11.738;2022-08-01T09:05:10;100996.72;;;23.25;66.92
67029;BME280;53934;52.142;11.738;2022-08-01T09:07:38;101001.75;;;23.63;66.09
67029;BME280;53934;52.142;11.738;2022-08-01T09:10:07;100995.28;;;23.48;65.54
67029;BME280;53934;52.142;11.738;2022-08-01T09:12:35;101006.50;;;23.77;65.56
67029;BME280;53934;52.142;11.738;2022-08-01T09:15:03;101006.81;;;24.00;64.68
67029;BME280;53934;52.142;11.738;2022-08-01T09:17:39;101003.34;;;24.42;64.45
67029;BME280;53934;52.142;11.738;2022-08-01T09:20:07;101011.75;;;25.05;62.46
67029;BME280;53934;52.142;11.738;2022-08-01T09:22:33;101004.38;;;25.39;60.87
67029;BME280;53934;52.142;11.738;2022-08-01T09:25:04;101020.81;;;25.77;58.83
67029;BME280;53934;52.142;11.738;2022-08-01T09:27:31;101014.28;;;25.63;59.22
67029;BME280;53934;52.142;11.738;2022-08-01T09:30:08;101020.66;;;25.54;56.99
67029;BME280;53934;52.142;11.738;2022-08-01T09:32:35;101016.63;;;25.74;56.81
67029;BME280;53934;52.142;11.738;2022-08-01T09:35:21;101018.16;;;25.52;57.42
67029;BME280;53934;52.142;11.738;2022-08-01T09:37:48;101008.41;;;25.43;58.51
67029;BME280;53934;52.142;11.738;2022-08-01T09:40:16;101019.31;;;25.82;57.21
67029;BME280;53934;52.142;11.738;2022-08-01T09:42:42;101013.09;;;25.65;56.46
67029;BME280;53934;52.142;11.738;2022-08-01T09:45:31;101009.91;;;25.86;56.01
67029;BME280;53934;52.142;11.738;2022-08-01T09:48:06;101008.00;;;26.03;54.49
67029;BME280;53934;52.142;11.738;2022-08-01T09:50:39;101015.06;;;26.04;54.35
67029;BME280;53934;52.142;11.738;2022-08-01T09:53:06;101017.91;;;26.02;54.30
67029;BME280;53934;52.142;11.738;2022-08-01T09:55:34;101022.50;;;25.05;57.04
67029;BME280;53934;52.142;11.738;2022-08-01T09:58:01;101033.03;;;24.98;56.49
67029;BME280;53934;52.142;11.738;2022-08-01T10:00:29;101034.81;;;24.82;57.03
67029;BME280;53934;52.142;11.738;2022-08-01T10:02:56;101033.78;;;24.75;57.27
67029;BME280;53934;52.142;11.738;2022-08-01T10:05:30;101035.97;;;24.71;57.69
67029;BME280;53934;52.142;11.738;2022-08-01T10:07:59;101039.31;;;24.73;57.41
67029;BME280;53934;52.142;11.738;2022-08-01T10:10:26;101040.66;;;24.77;58.40
67029;BME280;53934;52.142;11.738;2022-08-01T10:12:55;101045.78;;;24.96;58.63
67029;BME280;53934;52.142;11.738;2022-08-01T10:15:21;101036.53;;;24.91;58.48
67029;BME280;53934;52.142;11.738;2022-08-01T10:17:53;101042.81;;;25.24;58.41
67029;BME280;53934;52.142;11.738;2022-08-01T10:20:21;101044.00;;;25.70;58.06
67029;BME280;53934;52.142;11.738;2022-08-01T10:22:49;101040.97;;;25.73;56.69
67029;BME280;53934;52.142;11.738;2022-08-01T10:25:16;101036.19;;;26.15;56.95
67029;BME280;53934;52.142;11.738;2022-08-01T10:27:45;101034.34;;;26.24;55.80
67029;BME280;53934;52.142;11.738;2022-08-01T10:30:15;101040.50;;;26.32;54.36
67029;BME280;53934;52.142;11.738;2022-08-01T10:32:42;101033.72;;;26.52;54.06
67029;BME280;53934;52.142;11.738;2022-08-01T10:35:11;101028.09;;;26.62;53.50
67029;BME280;53934;52.142;11.738;2022-08-01T10:37:43;101034.22;;;26.56;52.64
67029;BME280;53934;52.142;11.738;2022-08-01T10:40:11;101031.88;;;26.84;51.24
67029;BME280;53934;52.142;11.738;2022-08-01T10:42:39;101037.38;;;26.90;52.55
67029;BME280;53934;52.142;11.738;2022-08-01T10:45:06;101030.53;;;26.80;51.40
67029;BME280;53934;52.142;11.738;2022-08-01T10:47:38;101032.47;;;26.63;51.94
67029;BME280;53934;52.142;11.738;2022-08-01T10:50:14;101035.75;;;26.81;50.69
67029;BME280;53934;52.142;11.738;2022-08-01T10:52:42;101034.44;;;27.08;51.73
67029;BME280;53934;52.142;11.738;2022-08-01T10:55:28;101038.34;;;27.66;50.98
67029;BME280;53934;52.142;11.738;2022-08-01T10:57:54;101040.41;;;27.64;49.08
67029;BME280;53934;52.142;11.738;2022-08-01T11:00:21;101042.41;;;27.39;49.02
67029;BME280;53934;52.142;11.738;2022-08-01T11:02:59;101034.84;;;27.20;50.72
67029;BME280;53934;52.142;11.738;2022-08-01T11:05:28;101036.78;;;26.72;50.24
67029;BME280;53934;52.142;11.738;2022-08-01T11:08:01;101029.41;;;26.74;50.67
67029;BME280;53934;52.142;11.738;2022-08-01T11:10:37;101041.97;;;26.90;52.32
67029;BME280;53934;52.142;11.738;2022-08-01T11:13:04;101036.09;;;26.86;51.74
67029;BME280;53934;52.142;11.738;2022-08-01T11:15:33;101042.59;;;26.92;51.68
67029;BME280;53934;52.142;11.738;2022-08-01T11:18:02;101041.19;;;26.65;52.05
67029;BME280;53934;52.142;11.738;2022-08-01T11:20:30;101044.38;;;26.69;51.44
67029;BME280;53934;52.142;11.738;2022-08-01T11:23:26;101047.31;;;26.51;51.37
67029;BME280;53934;52.142;11.738;2022-08-01T11:26:12;101047.09;;;26.30;51.88
67029;BME280;53934;52.142;11.738;2022-08-01T11:28:42;101059.31;;;26.32;53.09
67029;BME280;53934;52.142;11.738;2022-08-01T11:31:29;101046.09;;;26.31;53.65
67029;BME280;53934;52.142;11.738;2022-08-01T11:33:58;101043.56;;;26.13;54.03
67029;BME280;53934;52.142;11.738;2022-08-01T11:36:25;101050.78;;;26.21;54.51
67029;BME280;53934;52.142;11.738;2022-08-01T11:39:14;101045.22;;;26.69;53.48
67029;BME280;53934;52.142;11.738;2022-08-01T11:41:43;101050.69;;;27.15;51.83
67029;BME280;53934;52.142;11.738;2022-08-01T11:44:11;101053.69;;;26.58;52.43
67029;BME280;53934;52.142;11.738;2022-08-01T11:46:50;101065.78;;;26.62;51.81
67029;BME280;53934;52.142;11.738;2022-08-01T11:49:45;101054.94;;;26.78;53.03
67029;BME280;53934;52.142;11.738;2022-08-01T11:52:14;101060.81;;;26.82;51.61
67029;BME280;53934;52.142;11.738;2022-08-01T11:54:43;101059.28;;;26.87;53.04
67029;BME280;53934;52.142;11.738;2022-08-01T11:57:11;101047.91;;;26.69;52.66
67029;BME280;53934;52.142;11.738;2022-08-01T11:59:39;101061.94;;;27.18;52.37
67029;BME280;53934;52.142;11.738;2022-08-01T12:02:20;101056.50;;;27.86;52.90
67029;BME280;53934;52.142;11.738;2022-08-01T12:04:51;101067.47;;;27.85;51.23
67029;BME280;53934;52.142;11.738;2022-08-01T12:07:19;101069.19;;;27.40;50.74
67029;BME280;53934;52.142;11.738;2022-08-01T12:09:45;101059.91;;;27.43;51.77
67029;BME280;53934;52.142;11.738;2022-08-01T12:12:15;101069.63;;;27.52;50.67
67029;BME280;53934;52.142;11.738;2022-08-01T12:14:44;101072.31;;;27.52;51.24
67029;BME280;53934;52.142;11.738;2022-08-01T12:17:11;101072.38;;;27.67;51.48
67029;BME280;53934;52.142;11.738;2022-08-01T12:19:37;101069.63;;;27.52;50.68
67029;BME280;53934;52.142;11.738;2022-08-01T12:22:11;101073.19;;;27.22;51.82
67029;BME280;53934;52.142;11.738;2022-08-01T12:24:40;101066.75;;;26.69;52.03
67029;BME280;53934;52.142;11.738;2022-08-01T12:27:08;101068.72;;;26.83;52.05
67029;BME280;53934;52.142;11.738;2022-08-01T12:29:36;101075.13;;;26.74;52.80
67029;BME280;53934;52.142;11.738;2022-08-01T12:32:04;101068.75;;;26.75;52.13
67029;BME280;53934;52.142;11.738;2022-08-01T12:34:31;101064.28;;;26.90;52.25
67029;BME280;53934;52.142;11.738;2022-08-01T12:37:00;101069.00;;;27.19;52.24
67029;BME280;53934;52.142;11.738;2022-08-01T12:39:33;101072.06;;;27.16;52.38
67029;BME280;53934;52.142;11.738;2022-08-01T12:42:00;101067.22;;;27.34;50.75
67029;BME280;53934;52.142;11.738;2022-08-01T12:44:27;101073.88;;;27.46;49.76
67029;BME280;53934;52.142;11.738;2022-08-01T12:46:56;101063.22;;;27.30;50.61
67029;BME280;53934;52.142;11.738;2022-08-01T12:49:22;101061.09;;;27.18;50.26
67029;BME280;53934;52.142;11.738;2022-08-01T12:51:49;101064.66;;;26.87;51.12